sensor_id;sensor_type;location;lat;lon;timestamp;P1;durP1;ratioP1;P2;durP2;ratioP2
22705;SDS011;11520;51.198;4.468;2023-03-05T00:01:29;9.82;;;4.35;;
22705;SDS011;11520;51.198;4.468;2023-03-05T00:03:59;13.18;;;5.40;;
22705;SDS011;11520;51.198;4.468;2023-03-05T00:06:27;8.25;;;3.83;;
22705;SDS011;11520;51.198;4.468;2023-03-05T00:08:54;16.65;;;3.55;;
22705;SDS011;11520;51.198;4.468;2023-03-05T00:11:22;10.40;;;3.45;;
22705;SDS011;11520;51.198;4.468;2023-03-05T00:13:52;5.07;;;2.38;;
22705;SDS011;11520;51.198;4.468;2023-03-05T00:16:19;8.60;;;3.05;;
22705;SDS011;11520;51.198;4.468;2023-03-05T00:18:45;6.78;;;2.40;;
22705;SDS011;11520;51.198;4.468;2023-03-05T00:23:52;8.40;;;2.80;;
22705;SDS011;11520;51.198;4.468;2023-03-05T00:26:22;9.05;;;2.03;;
22705;SDS011;11520;51.198;4.468;2023-03-05T00:28:50;8.52;;;1.90;;
22705;SDS011;11520;51.198;4.468;2023-03-05T00:31:17;10.23;;;1.90;;
22705;SDS011;11520;51.198;4.468;2023-03-05T00:33:52;6.90;;;2.00;;
22705;SDS011;11520;51.198;4.468;2023-03-05T00:36:18;8.02;;;1.75;;
22705;SDS011;11520;51.198;4.468;2023-03-05T00:38:45;12.43;;;2.10;;
22705;SDS011;11520;51.198;4.468;2023-03-05T00:41:13;7.43;;;2.20;;
22705;SDS011;11520;51.198;4.468;2023-03-05T00:43:39;7.57;;;2.17;;
22705;SDS011;11520;51.198;4.468;2023-03-05T00:46:04;9.32;;;2.03;;
22705;SDS011;11520;51.198;4.468;2023-03-05T00:48:30;7.45;;;2.15;;
22705;SDS011;11520;51.198;4.468;2023-03-05T00:50:56;7.85;;;1.63;;
22705;SDS011;11520;51.198;4.468;2023-03-05T00:53:24;7.47;;;2.03;;
22705;SDS011;11520;51.198;4.468;2023-03-05T00:55:51;5.75;;;1.80;;
22705;SDS011;11520;51.198;4.468;2023-03-05T00:58:17;12.85;;;2.72;;
22705;SDS011;11520;51.198;4.468;2023-03-05T01:00:42;6.15;;;2.03;;
22705;SDS011;11520;51.198;4.468;2023-03-05T01:03:08;6.05;;;1.92;;
22705;SDS011;11520;51.198;4.468;2023-03-05T01:05:34;7.75;;;1.83;;
22705;SDS011;11520;51.198;4.468;2023-03-05T01:07:59;8.35;;;2.15;;
22705;SDS011;11520;51.198;4.468;2023-03-05T01:10:25;12.98;;;2.88;;
22705;SDS011;11520;51.198;4.468;2023-03-05T01:12:55;6.93;;;2.10;;
22705;SDS011;11520;51.198;4.468;2023-03-05T01:15:22;10.27;;;2.47;;
22705;SDS011;11520;51.198;4.468;2023-03-05T01:17:48;9.02;;;2.30;;
22705;SDS011;11520;51.198;4.468;2023-03-05T01:20:17;10.95;;;1.92;;
22705;SDS011;11520;51.198;4.468;2023-03-05T01:22:44;9.13;;;2.30;;
22705;SDS011;11520;51.198;4.468;2023-03-05T01:25:11;8.18;;;2.00;;
22705;SDS011;11520;51.198;4.468;2023-03-05T01:27:37;7.53;;;2.15;;
22705;SDS011;11520;51.198;4.468;2023-03-05T01:30:03;7.15;;;2.22;;
22705;SDS011;11520;51.198;4.468;2023-03-05T01:32:31;8.32;;;2.03;;
22705;SDS011;11520;51.198;4.468;2023-03-05T01:34:59;9.57;;;1.60;;
22705;SDS011;11520;51.198;4.468;2023-03-05T01:37:27;6.65;;;1.58;;
22705;SDS011;11520;51.198;4.468;2023-03-05T01:39:54;5.18;;;1.50;;
22705;SDS011;11520;51.198;4.468;2023-03-05T01:42:20;6.57;;;1.50;;
22705;SDS011;11520;51.198;4.468;2023-03-05T01:45:04;6.45;;;1.38;;
22705;SDS011;11520;51.198;4.468;2023-03-05T01:47:33;5.97;;;1.70;;
22705;SDS011;11520;51.198;4.468;2023-03-05T01:49:59;9.13;;;2.33;;
22705;SDS011;11520;51.198;4.468;2023-03-05T01:52:25;8.90;;;2.28;;
22705;SDS011;11520;51.198;4.468;2023-03-05T01:54:55;8.43;;;2.05;;
22705;SDS011;11520;51.198;4.468;2023-03-05T01:57:32;8.60;;;1.63;;
22705;SDS011;11520;51.198;4.468;2023-03-05T02:03:09;10.93;;;1.45;;
22705;SDS011;11520;51.198;4.468;2023-03-05T02:05:38;7.40;;;1.77;;
22705;SDS011;11520;51.198;4.468;2023-03-05T02:08:10;11.57;;;1.95;;
22705;SDS011;11520;51.198;4.468;2023-03-05T02:10:48;5.80;;;1.60;;
22705;SDS011;11520;51.198;4.468;2023-03-05T02:13:22;7.85;;;1.67;;
22705;SDS011;11520;51.198;4.468;2023-03-05T02:15:49;11.70;;;2.10;;
22705;SDS011;11520;51.198;4.468;2023-03-05T02:18:17;7.85;;;2.38;;
22705;SDS011;11520;51.198;4.468;2023-03-05T02:20:52;11.88;;;2.97;;
22705;SDS011;11520;51.198;4.468;2023-03-05T02:23:29;14.80;;;4.00;;
22705;SDS011;11520;51.198;4.468;2023-03-05T02:25:58;11.18;;;3.85;;
22705;SDS011;11520;51.198;4.468;2023-03-05T02:28:45;9.40;;;4.03;;
22705;SDS011;11520;51.198;4.468;2023-03-05T02:31:15;12.25;;;5.00;;
22705;SDS011;11520;51.198;4.468;2023-03-05T02:33:43;12.60;;;4.47;;
22705;SDS011;11520;51.198;4.468;2023-03-05T02:36:09;11.80;;;4.55;;
22705;SDS011;11520;51.198;4.468;2023-03-05T02:38:36;12.38;;;4.38;;
22705;SDS011;11520;51.198;4.468;2023-03-05T02:41:02;8.80;;;4.38;;
22705;SDS011;11520;51.198;4.468;2023-03-05T02:43:28;10.75;;;4.43;;
22705;SDS011;11520;51.198;4.468;2023-03-05T02:45:54;10.65;;;4.43;;
22705;SDS011;11520;51.198;4.468;2023-03-05T02:48:20;9.65;;;4.40;;
22705;SDS011;11520;51.198;4.468;2023-03-05T02:50:47;11.52;;;4.65;;
22705;SDS011;11520;51.198;4.468;2023-03-05T02:53:13;12.15;;;4.90;;
22705;SDS011;11520;51.198;4.468;2023-03-05T02:55:39;8.80;;;4.13;;
22705;SDS011;11520;51.198;4.468;2023-03-05T02:58:04;10.77;;;4.57;;
22705;SDS011;11520;51.198;4.468;2023-03-05T03:00:30;7.22;;;4.00;;
22705;SDS011;11520;51.198;4.468;2023-03-05T03:02:56;10.48;;;4.15;;
22705;SDS011;11520;51.198;4.468;2023-03-05T03:05:23;8.40;;;4.10;;
22705;SDS011;11520;51.198;4.468;2023-03-05T03:07:49;8.15;;;4.70;;
22705;SDS011;11520;51.198;4.468;2023-03-05T03:10:14;11.70;;;4.60;;
22705;SDS011;11520;51.198;4.468;2023-03-05T03:12:42;6.65;;;4.15;;
22705;SDS011;11520;51.198;4.468;2023-03-05T03:15:09;11.35;;;4.70;;
22705;SDS011;11520;51.198;4.468;2023-03-05T03:17:37;12.57;;;4.90;;
22705;SDS011;11520;51.198;4.468;2023-03-05T03:20:03;10.30;;;4.93;;
22705;SDS011;11520;51.198;4.468;2023-03-05T03:22:31;14.98;;;6.18;;
22705;SDS011;11520;51.198;4.468;2023-03-05T03:24:58;8.93;;;5.07;;
22705;SDS011;11520;51.198;4.468;2023-03-05T03:27:25;12.43;;;5.65;;
22705;SDS011;11520;51.198;4.468;2023-03-05T03:29:52;12.07;;;5.80;;
22705;SDS011;11520;51.198;4.468;2023-03-05T03:32:18;13.43;;;5.65;;
22705;SDS011;11520;51.198;4.468;2023-03-05T03:34:45;9.85;;;5.45;;
22705;SDS011;11520;51.198;4.468;2023-03-05T03:37:12;12.30;;;5.70;;
22705;SDS011;11520;51.198;4.468;2023-03-05T03:39:38;12.43;;;6.03;;
22705;SDS011;11520;51.198;4.468;2023-03-05T03:42:05;11.57;;;5.97;;
22705;SDS011;11520;51.198;4.468;2023-03-05T03:44:31;12.55;;;6.10;;
22705;SDS011;11520;51.198;4.468;2023-03-05T03:46:56;14.02;;;5.65;;
22705;SDS011;11520;51.198;4.468;2023-03-05T03:49:24;13.75;;;6.32;;
22705;SDS011;11520;51.198;4.468;2023-03-05T03:51:52;10.60;;;5.32;;
22705;SDS011;11520;51.198;4.468;2023-03-05T03:54:19;11.98;;;6.25;;
22705;SDS011;11520;51.198;4.468;2023-03-05T03:56:45;14.85;;;6.25;;
22705;SDS011;11520;51.198;4.468;2023-03-05T03:59:13;11.50;;;5.95;;
22705;SDS011;11520;51.198;4.468;2023-03-05T04:01:38;10.38;;;5.85;;
22705;SDS011;11520;51.198;4.468;2023-03-05T04:04:04;13.05;;;6.07;;
22705;SDS011;11520;51.198;4.468;2023-03-05T04:06:31;11.55;;;5.72;;
22705;SDS011;11520;51.198;4.468;2023-03-05T04:08:57;10.55;;;5.32;;
22705;SDS011;11520;51.198;4.468;2023-03-05T04:11:23;13.50;;;6.47;;
22705;SDS011;11520;51.198;4.468;2023-03-05T04:13:49;12.07;;;6.05;;
22705;SDS011;11520;51.198;4.468;2023-03-05T04:16:15;13.25;;;6.30;;
22705;SDS011;11520;51.198;4.468;2023-03-05T04:18:41;15.23;;;6.78;;
22705;SDS011;11520;51.198;4.468;2023-03-05T04:21:08;14.98;;;6.85;;
22705;SDS011;11520;51.198;4.468;2023-03-05T04:23:34;13.50;;;7.30;;
22705;SDS011;11520;51.198;4.468;2023-03-05T04:26:00;16.58;;;7.07;;
22705;SDS011;11520;51.198;4.468;2023-03-05T04:28:26;15.27;;;7.00;;
22705;SDS011;11520;51.198;4.468;2023-03-05T04:30:52;19.40;;;8.65;;
22705;SDS011;11520;51.198;4.468;2023-03-05T04:33:17;17.77;;;7.82;;
22705;SDS011;11520;51.198;4.468;2023-03-05T04:35:43;15.82;;;7.72;;
22705;SDS011;11520;51.198;4.468;2023-03-05T04:38:09;16.95;;;7.75;;
22705;SDS011;11520;51.198;4.468;2023-03-05T04:40:35;18.05;;;8.15;;
22705;SDS011;11520;51.198;4.468;2023-03-05T04:43:01;19.10;;;8.23;;
22705;SDS011;11520;51.198;4.468;2023-03-05T04:45:28;19.60;;;9.20;;
22705;SDS011;11520;51.198;4.468;2023-03-05T04:47:54;21.70;;;8.57;;
22705;SDS011;11520;51.198;4.468;2023-03-05T04:50:20;16.80;;;8.65;;
22705;SDS011;11520;51.198;4.468;2023-03-05T04:52:46;16.63;;;8.20;;
22705;SDS011;11520;51.198;4.468;2023-03-05T04:55:12;18.92;;;8.85;;
22705;SDS011;11520;51.198;4.468;2023-03-05T04:57:39;17.63;;;8.82;;
22705;SDS011;11520;51.198;4.468;2023-03-05T05:00:06;15.63;;;8.80;;
22705;SDS011;11520;51.198;4.468;2023-03-05T05:02:38;16.27;;;8.63;;
22705;SDS011;11520;51.198;4.468;2023-03-05T05:05:06;19.10;;;9.00;;
22705;SDS011;11520;51.198;4.468;2023-03-05T05:10:02;20.88;;;8.13;;
22705;SDS011;11520;51.198;4.468;2023-03-05T05:12:28;15.88;;;8.02;;
22705;SDS011;11520;51.198;4.468;2023-03-05T05:14:56;13.63;;;7.70;;
22705;SDS011;11520;51.198;4.468;2023-03-05T05:17:23;17.40;;;7.05;;
22705;SDS011;11520;51.198;4.468;2023-03-05T05:19:49;15.30;;;7.30;;
22705;SDS011;11520;51.198;4.468;2023-03-05T05:22:16;13.60;;;7.75;;
22705;SDS011;11520;51.198;4.468;2023-03-05T05:24:44;14.63;;;7.32;;
22705;SDS011;11520;51.198;4.468;2023-03-05T05:27:09;15.55;;;7.18;;
22705;SDS011;11520;51.198;4.468;2023-03-05T05:29:35;15.05;;;7.30;;
22705;SDS011;11520;51.198;4.468;2023-03-05T05:32:01;13.68;;;6.90;;
22705;SDS011;11520;51.198;4.468;2023-03-05T05:34:28;15.90;;;6.20;;
22705;SDS011;11520;51.198;4.468;2023-03-05T05:36:56;16.30;;;6.22;;
22705;SDS011;11520;51.198;4.468;2023-03-05T05:39:22;8.98;;;5.72;;
22705;SDS011;11520;51.198;4.468;2023-03-05T05:41:51;9.85;;;5.53;;
22705;SDS011;11520;51.198;4.468;2023-03-05T05:44:18;10.02;;;5.45;;
22705;SDS011;11520;51.198;4.468;2023-03-05T05:46:45;10.80;;;5.53;;
22705;SDS011;11520;51.198;4.468;2023-03-05T05:49:12;9.82;;;5.25;;
22705;SDS011;11520;51.198;4.468;2023-03-05T05:51:37;17.77;;;5.75;;
22705;SDS011;11520;51.198;4.468;2023-03-05T05:54:03;10.80;;;5.03;;
22705;SDS011;11520;51.198;4.468;2023-03-05T05:56:29;11.50;;;5.25;;
22705;SDS011;11520;51.198;4.468;2023-03-05T05:58:55;12.02;;;4.85;;
22705;SDS011;11520;51.198;4.468;2023-03-05T06:01:25;11.45;;;5.32;;
22705;SDS011;11520;51.198;4.468;2023-03-05T06:03:52;7.63;;;4.75;;
22705;SDS011;11520;51.198;4.468;2023-03-05T06:06:19;9.85;;;4.95;;
22705;SDS011;11520;51.198;4.468;2023-03-05T06:08:46;10.85;;;4.80;;
22705;SDS011;11520;51.198;4.468;2023-03-05T06:11:12;10.95;;;5.00;;
22705;SDS011;11520;51.198;4.468;2023-03-05T06:13:38;11.40;;;5.18;;
22705;SDS011;11520;51.198;4.468;2023-03-05T06:16:07;11.23;;;5.28;;
22705;SDS011;11520;51.198;4.468;2023-03-05T06:18:35;12.68;;;5.78;;
22705;SDS011;11520;51.198;4.468;2023-03-05T06:21:05;11.30;;;6.53;;
22705;SDS011;11520;51.198;4.468;2023-03-05T06:23:33;13.10;;;6.18;;
22705;SDS011;11520;51.198;4.468;2023-03-05T06:26:02;13.90;;;5.90;;
22705;SDS011;11520;51.198;4.468;2023-03-05T06:28:31;11.85;;;5.25;;
22705;SDS011;11520;51.198;4.468;2023-03-05T06:31:03;15.70;;;5.47;;
22705;SDS011;11520;51.198;4.468;2023-03-05T06:38:48;15.38;;;6.13;;
22705;SDS011;11520;51.198;4.468;2023-03-05T06:41:17;13.48;;;6.30;;
22705;SDS011;11520;51.198;4.468;2023-03-05T06:44:00;12.40;;;6.20;;
22705;SDS011;11520;51.198;4.468;2023-03-05T06:46:31;14.13;;;7.00;;
22705;SDS011;11520;51.198;4.468;2023-03-05T06:49:00;11.93;;;6.22;;
22705;SDS011;11520;51.198;4.468;2023-03-05T06:51:36;9.98;;;6.70;;
22705;SDS011;11520;51.198;4.468;2023-03-05T06:54:13;11.82;;;6.00;;
22705;SDS011;11520;51.198;4.468;2023-03-05T06:56:42;13.60;;;6.18;;
22705;SDS011;11520;51.198;4.468;2023-03-05T06:59:12;9.05;;;6.15;;
22705;SDS011;11520;51.198;4.468;2023-03-05T07:01:42;12.43;;;6.60;;
22705;SDS011;11520;51.198;4.468;2023-03-05T07:04:09;19.40;;;6.47;;
22705;SDS011;11520;51.198;4.468;2023-03-05T07:06:39;10.02;;;6.18;;
22705;SDS011;11520;51.198;4.468;2023-03-05T07:09:13;10.20;;;5.90;;
22705;SDS011;11520;51.198;4.468;2023-03-05T07:11:39;13.65;;;6.63;;
22705;SDS011;11520;51.198;4.468;2023-03-05T07:14:06;8.50;;;5.97;;
22705;SDS011;11520;51.198;4.468;2023-03-05T07:16:33;12.23;;;6.85;;
22705;SDS011;11520;51.198;4.468;2023-03-05T07:18:59;14.05;;;6.65;;
22705;SDS011;11520;51.198;4.468;2023-03-05T07:21:29;12.30;;;6.60;;
22705;SDS011;11520;51.198;4.468;2023-03-05T07:23:57;14.52;;;6.65;;
22705;SDS011;11520;51.198;4.468;2023-03-05T07:26:23;13.48;;;6.65;;
22705;SDS011;11520;51.198;4.468;2023-03-05T07:28:50;13.32;;;5.82;;
22705;SDS011;11520;51.198;4.468;2023-03-05T07:31:20;15.88;;;5.55;;
22705;SDS011;11520;51.198;4.468;2023-03-05T07:33:51;9.55;;;5.30;;
22705;SDS011;11520;51.198;4.468;2023-03-05T07:36:17;10.95;;;5.45;;
22705;SDS011;11520;51.198;4.468;2023-03-05T07:38:43;11.20;;;5.88;;
22705;SDS011;11520;51.198;4.468;2023-03-05T07:41:10;10.57;;;6.43;;
22705;SDS011;11520;51.198;4.468;2023-03-05T07:43:38;12.10;;;5.55;;
22705;SDS011;11520;51.198;4.468;2023-03-05T07:46:05;12.88;;;5.97;;
22705;SDS011;11520;51.198;4.468;2023-03-05T07:48:33;9.75;;;5.80;;
22705;SDS011;11520;51.198;4.468;2023-03-05T07:51:10;11.13;;;6.07;;
22705;SDS011;11520;51.198;4.468;2023-03-05T07:53:41;13.85;;;5.80;;
22705;SDS011;11520;51.198;4.468;2023-03-05T07:56:07;10.82;;;6.10;;
22705;SDS011;11520;51.198;4.468;2023-03-05T07:58:35;10.13;;;5.70;;
22705;SDS011;11520;51.198;4.468;2023-03-05T08:01:01;11.32;;;6.05;;
22705;SDS011;11520;51.198;4.468;2023-03-05T08:03:29;9.02;;;5.97;;
22705;SDS011;11520;51.198;4.468;2023-03-05T08:05:56;13.20;;;7.30;;
22705;SDS011;11520;51.198;4.468;2023-03-05T08:08:22;12.73;;;7.40;;
22705;SDS011;11520;51.198;4.468;2023-03-05T08:10:47;13.35;;;7.90;;
22705;SDS011;11520;51.198;4.468;2023-03-05T08:13:13;8.88;;;7.18;;
22705;SDS011;11520;51.198;4.468;2023-03-05T08:15:40;14.07;;;8.18;;
22705;SDS011;11520;51.198;4.468;2023-03-05T08:18:06;10.23;;;6.38;;
22705;SDS011;11520;51.198;4.468;2023-03-05T08:20:35;9.63;;;4.85;;
22705;SDS011;11520;51.198;4.468;2023-03-05T08:23:01;9.93;;;4.50;;
22705;SDS011;11520;51.198;4.468;2023-03-05T08:25:30;11.38;;;5.60;;
22705;SDS011;11520;51.198;4.468;2023-03-05T08:27:58;9.00;;;4.22;;
22705;SDS011;11520;51.198;4.468;2023-03-05T08:30:24;3.75;;;2.85;;
22705;SDS011;11520;51.198;4.468;2023-03-05T08:32:51;4.90;;;2.83;;
22705;SDS011;11520;51.198;4.468;2023-03-05T08:35:19;5.97;;;3.33;;
22705;SDS011;11520;51.198;4.468;2023-03-05T08:37:45;4.97;;;3.20;;
22705;SDS011;11520;51.198;4.468;2023-03-05T08:40:17;6.35;;;2.63;;
22705;SDS011;11520;51.198;4.468;2023-03-05T08:42:45;5.40;;;2.22;;
22705;SDS011;11520;51.198;4.468;2023-03-05T08:45:11;4.07;;;2.45;;
22705;SDS011;11520;51.198;4.468;2023-03-05T08:47:39;3.42;;;2.63;;
22705;SDS011;11520;51.198;4.468;2023-03-05T08:50:06;6.70;;;2.25;;
22705;SDS011;11520;51.198;4.468;2023-03-05T08:52:34;5.30;;;3.13;;
22705;SDS011;11520;51.198;4.468;2023-03-05T08:54:59;5.38;;;2.47;;
22705;SDS011;11520;51.198;4.468;2023-03-05T08:59:55;5.38;;;2.50;;
22705;SDS011;11520;51.198;4.468;2023-03-05T09:02:21;2.92;;;2.30;;
22705;SDS011;11520;51.198;4.468;2023-03-05T09:04:48;5.20;;;2.05;;
22705;SDS011;11520;51.198;4.468;2023-03-05T09:07:14;2.65;;;1.58;;
22705;SDS011;11520;51.198;4.468;2023-03-05T09:09:41;2.17;;;1.23;;
22705;SDS011;11520;51.198;4.468;2023-03-05T09:12:08;3.75;;;2.00;;
22705;SDS011;11520;51.198;4.468;2023-03-05T09:14:36;3.67;;;1.45;;
22705;SDS011;11520;51.198;4.468;2023-03-05T09:17:03;3.33;;;1.48;;
22705;SDS011;11520;51.198;4.468;2023-03-05T09:19:29;3.30;;;1.50;;
22705;SDS011;11520;51.198;4.468;2023-03-05T09:21:56;3.83;;;1.83;;
22705;SDS011;11520;51.198;4.468;2023-03-05T09:24:21;4.28;;;1.48;;
22705;SDS011;11520;51.198;4.468;2023-03-05T09:26:47;3.40;;;1.48;;
22705;SDS011;11520;51.198;4.468;2023-03-05T09:29:13;3.78;;;1.60;;
22705;SDS011;11520;51.198;4.468;2023-03-05T09:31:38;3.50;;;1.80;;
22705;SDS011;11520;51.198;4.468;2023-03-05T09:34:04;6.60;;;1.60;;
22705;SDS011;11520;51.198;4.468;2023-03-05T09:36:31;3.55;;;1.40;;
22705;SDS011;11520;51.198;4.468;2023-03-05T09:38:57;3.40;;;1.38;;
22705;SDS011;11520;51.198;4.468;2023-03-05T10:01:10;3.70;;;1.20;;
22705;SDS011;11520;51.198;4.468;2023-03-05T10:03:58;2.38;;;1.13;;
22705;SDS011;11520;51.198;4.468;2023-03-05T10:09:02;1.17;;;0.93;;
22705;SDS011;11520;51.198;4.468;2023-03-05T10:14:12;3.28;;;1.45;;
22705;SDS011;11520;51.198;4.468;2023-03-05T10:22:27;4.10;;;1.15;;
22705;SDS011;11520;51.198;4.468;2023-03-05T10:28:34;1.45;;;0.95;;
22705;SDS011;11520;51.198;4.468;2023-03-05T10:34:17;2.50;;;1.00;;
22705;SDS011;11520;51.198;4.468;2023-03-05T10:39:45;5.25;;;2.42;;
22705;SDS011;11520;51.198;4.468;2023-03-05T10:45:28;4.15;;;1.70;;
22705;SDS011;11520;51.198;4.468;2023-03-05T10:50:34;1.83;;;1.20;;
22705;SDS011;11520;51.198;4.468;2023-03-05T10:53:13;2.97;;;1.60;;
22705;SDS011;11520;51.198;4.468;2023-03-05T10:55:54;2.22;;;1.88;;
22705;SDS011;11520;51.198;4.468;2023-03-05T11:07:57;2.28;;;1.58;;
22705;SDS011;11520;51.198;4.468;2023-03-05T11:10:23;3.03;;;2.03;;
22705;SDS011;11520;51.198;4.468;2023-03-05T11:12:50;3.90;;;2.70;;
22705;SDS011;11520;51.198;4.468;2023-03-05T11:15:23;3.65;;;2.35;;
22705;SDS011;11520;51.198;4.468;2023-03-05T11:20:48;2.20;;;1.48;;
22705;SDS011;11520;51.198;4.468;2023-03-05T11:23:21;3.42;;;1.10;;
22705;SDS011;11520;51.198;4.468;2023-03-05T11:28:31;6.32;;;1.13;;
22705;SDS011;11520;51.198;4.468;2023-03-05T11:31:06;1.38;;;0.60;;
22705;SDS011;11520;51.198;4.468;2023-03-05T11:33:34;3.80;;;1.35;;
22705;SDS011;11520;51.198;4.468;2023-03-05T11:38:43;1.90;;;0.93;;
22705;SDS011;11520;51.198;4.468;2023-03-05T11:41:17;3.40;;;1.00;;
22705;SDS011;11520;51.198;4.468;2023-03-05T11:43:48;2.42;;;0.73;;
22705;SDS011;11520;51.198;4.468;2023-03-05T11:46:17;2.50;;;1.30;;
22705;SDS011;11520;51.198;4.468;2023-03-05T11:48:44;3.22;;;1.30;;
22705;SDS011;11520;51.198;4.468;2023-03-05T11:54:06;2.78;;;1.23;;
22705;SDS011;11520;51.198;4.468;2023-03-05T11:56:38;8.23;;;1.87;;
22705;SDS011;11520;51.198;4.468;2023-03-05T11:59:19;3.28;;;1.17;;
22705;SDS011;11520;51.198;4.468;2023-03-05T12:01:52;5.35;;;1.38;;
22705;SDS011;11520;51.198;4.468;2023-03-05T12:04:19;4.28;;;1.15;;
22705;SDS011;11520;51.198;4.468;2023-03-05T12:06:48;5.82;;;1.05;;
22705;SDS011;11520;51.198;4.468;2023-03-05T12:09:25;3.55;;;0.68;;
22705;SDS011;11520;51.198;4.468;2023-03-05T12:12:17;3.30;;;0.98;;
22705;SDS011;11520;51.198;4.468;2023-03-05T12:17:44;5.72;;;1.10;;
22705;SDS011;11520;51.198;4.468;2023-03-05T12:23:19;3.15;;;1.25;;
22705;SDS011;11520;51.198;4.468;2023-03-05T12:25:49;3.40;;;1.15;;
22705;SDS011;11520;51.198;4.468;2023-03-05T12:28:51;3.17;;;0.82;;
22705;SDS011;11520;51.198;4.468;2023-03-05T12:33:50;6.38;;;1.67;;
22705;SDS011;11520;51.198;4.468;2023-03-05T12:46:30;3.80;;;1.92;;
22705;SDS011;11520;51.198;4.468;2023-03-05T12:48:57;3.10;;;0.80;;
22705;SDS011;11520;51.198;4.468;2023-03-05T12:51:31;3.05;;;1.02;;
22705;SDS011;11520;51.198;4.468;2023-03-05T12:56:51;4.85;;;1.00;;
22705;SDS011;11520;51.198;4.468;2023-03-05T12:59:22;4.78;;;1.48;;
22705;SDS011;11520;51.198;4.468;2023-03-05T13:01:58;2.88;;;0.80;;
22705;SDS011;11520;51.198;4.468;2023-03-05T13:04:30;1.20;;;0.55;;
22705;SDS011;11520;51.198;4.468;2023-03-05T13:07:01;1.00;;;0.50;;
22705;SDS011;11520;51.198;4.468;2023-03-05T13:09:29;1.05;;;0.50;;
22705;SDS011;11520;51.198;4.468;2023-03-05T13:12:00;1.40;;;0.50;;
22705;SDS011;11520;51.198;4.468;2023-03-05T13:14:34;1.98;;;0.93;;
22705;SDS011;11520;51.198;4.468;2023-03-05T13:25:59;3.92;;;0.75;;
22705;SDS011;11520;51.198;4.468;2023-03-05T13:28:39;3.53;;;0.73;;
22705;SDS011;11520;51.198;4.468;2023-03-05T13:33:38;1.77;;;0.50;;
22705;SDS011;11520;51.198;4.468;2023-03-05T13:36:05;1.13;;;0.30;;
22705;SDS011;11520;51.198;4.468;2023-03-05T13:38:35;1.80;;;0.22;;
22705;SDS011;11520;51.198;4.468;2023-03-05T13:41:06;0.73;;;0.20;;
22705;SDS011;11520;51.198;4.468;2023-03-05T13:43:32;1.20;;;0.50;;
22705;SDS011;11520;51.198;4.468;2023-03-05T13:46:00;2.20;;;0.40;;
22705;SDS011;11520;51.198;4.468;2023-03-05T13:48:26;1.00;;;0.30;;
22705;SDS011;11520;51.198;4.468;2023-03-05T13:50:54;2.03;;;0.32;;
22705;SDS011;11520;51.198;4.468;2023-03-05T13:53:25;1.42;;;0.40;;
22705;SDS011;11520;51.198;4.468;2023-03-05T13:56:01;4.47;;;0.73;;
22705;SDS011;11520;51.198;4.468;2023-03-05T13:58:48;0.75;;;0.30;;
22705;SDS011;11520;51.198;4.468;2023-03-05T14:12:03;3.55;;;1.08;;
22705;SDS011;11520;51.198;4.468;2023-03-05T14:14:36;1.90;;;0.80;;
22705;SDS011;11520;51.198;4.468;2023-03-05T14:17:50;3.45;;;1.25;;
22705;SDS011;11520;51.198;4.468;2023-03-05T14:22:42;5.15;;;1.10;;
22705;SDS011;11520;51.198;4.468;2023-03-05T14:28:18;1.35;;;1.15;;
22705;SDS011;11520;51.198;4.468;2023-03-05T14:30:53;4.22;;;2.13;;
22705;SDS011;11520;51.198;4.468;2023-03-05T14:33:23;2.10;;;1.40;;
22705;SDS011;11520;51.198;4.468;2023-03-05T14:35:56;3.33;;;1.45;;
22705;SDS011;11520;51.198;4.468;2023-03-05T14:38:27;7.10;;;1.55;;
22705;SDS011;11520;51.198;4.468;2023-03-05T14:40:55;2.95;;;1.52;;
22705;SDS011;11520;51.198;4.468;2023-03-05T14:43:21;2.40;;;1.15;;
22705;SDS011;11520;51.198;4.468;2023-03-05T14:45:47;4.25;;;1.38;;
22705;SDS011;11520;51.198;4.468;2023-03-05T14:48:14;2.30;;;1.23;;
22705;SDS011;11520;51.198;4.468;2023-03-05T14:53:18;6.82;;;1.30;;
22705;SDS011;11520;51.198;4.468;2023-03-05T14:55:49;2.90;;;1.30;;
22705;SDS011;11520;51.198;4.468;2023-03-05T14:58:21;4.93;;;1.85;;
22705;SDS011;11520;51.198;4.468;2023-03-05T15:00:49;4.68;;;1.25;;
22705;SDS011;11520;51.198;4.468;2023-03-05T15:03:18;4.32;;;1.48;;
22705;SDS011;11520;51.198;4.468;2023-03-05T15:05:45;2.05;;;1.10;;
22705;SDS011;11520;51.198;4.468;2023-03-05T15:08:14;4.10;;;0.77;;
22705;SDS011;11520;51.198;4.468;2023-03-05T15:10:43;3.25;;;1.30;;
22705;SDS011;11520;51.198;4.468;2023-03-05T15:13:09;1.23;;;0.77;;
22705;SDS011;11520;51.198;4.468;2023-03-05T15:15:37;2.65;;;1.05;;
22705;SDS011;11520;51.198;4.468;2023-03-05T15:18:04;2.03;;;1.15;;
22705;SDS011;11520;51.198;4.468;2023-03-05T15:20:30;1.20;;;1.10;;
22705;SDS011;11520;51.198;4.468;2023-03-05T15:22:56;2.65;;;1.30;;
22705;SDS011;11520;51.198;4.468;2023-03-05T15:25:23;4.72;;;1.63;;
22705;SDS011;11520;51.198;4.468;2023-03-05T15:27:50;2.33;;;1.25;;
22705;SDS011;11520;51.198;4.468;2023-03-05T15:30:20;3.30;;;2.00;;
22705;SDS011;11520;51.198;4.468;2023-03-05T15:32:47;2.22;;;1.33;;
22705;SDS011;11520;51.198;4.468;2023-03-05T15:35:16;2.08;;;1.38;;
22705;SDS011;11520;51.198;4.468;2023-03-05T15:37:41;2.75;;;1.40;;
22705;SDS011;11520;51.198;4.468;2023-03-05T15:40:09;2.33;;;1.70;;
22705;SDS011;11520;51.198;4.468;2023-03-05T15:42:36;5.40;;;2.80;;
22705;SDS011;11520;51.198;4.468;2023-03-05T15:45:03;3.97;;;2.38;;
22705;SDS011;11520;51.198;4.468;2023-03-05T15:47:31;5.70;;;2.58;;
22705;SDS011;11520;51.198;4.468;2023-03-05T15:49:57;7.32;;;2.40;;
22705;SDS011;11520;51.198;4.468;2023-03-05T15:52:26;4.07;;;2.17;;
22705;SDS011;11520;51.198;4.468;2023-03-05T15:54:58;7.38;;;3.00;;
22705;SDS011;11520;51.198;4.468;2023-03-05T15:57:25;8.30;;;2.40;;
22705;SDS011;11520;51.198;4.468;2023-03-05T15:59:50;3.67;;;2.50;;
22705;SDS011;11520;51.198;4.468;2023-03-05T16:02:18;4.05;;;1.90;;
22705;SDS011;11520;51.198;4.468;2023-03-05T16:04:46;6.00;;;2.35;;
22705;SDS011;11520;51.198;4.468;2023-03-05T16:07:14;8.35;;;2.95;;
22705;SDS011;11520;51.198;4.468;2023-03-05T16:09:42;5.47;;;2.75;;
22705;SDS011;11520;51.198;4.468;2023-03-05T16:12:13;4.63;;;3.08;;
22705;SDS011;11520;51.198;4.468;2023-03-05T16:14:42;9.45;;;2.97;;
22705;SDS011;11520;51.198;4.468;2023-03-05T16:17:10;6.38;;;2.92;;
22705;SDS011;11520;51.198;4.468;2023-03-05T16:19:39;7.47;;;3.22;;
22705;SDS011;11520;51.198;4.468;2023-03-05T16:22:08;7.97;;;3.50;;
22705;SDS011;11520;51.198;4.468;2023-03-05T16:24:34;10.23;;;3.20;;
22705;SDS011;11520;51.198;4.468;2023-03-05T16:26:59;6.30;;;3.60;;
22705;SDS011;11520;51.198;4.468;2023-03-05T16:29:25;7.25;;;3.85;;
22705;SDS011;11520;51.198;4.468;2023-03-05T16:31:54;7.95;;;3.85;;
22705;SDS011;11520;51.198;4.468;2023-03-05T16:34:20;8.20;;;3.67;;
22705;SDS011;11520;51.198;4.468;2023-03-05T16:36:48;17.83;;;5.07;;
22705;SDS011;11520;51.198;4.468;2023-03-05T16:39:18;6.53;;;3.80;;
22705;SDS011;11520;51.198;4.468;2023-03-05T16:41:48;6.82;;;3.92;;
22705;SDS011;11520;51.198;4.468;2023-03-05T16:44:14;7.15;;;3.45;;
22705;SDS011;11520;51.198;4.468;2023-03-05T16:46:40;6.07;;;3.53;;
22705;SDS011;11520;51.198;4.468;2023-03-05T16:49:09;6.65;;;4.10;;
22705;SDS011;11520;51.198;4.468;2023-03-05T16:51:35;4.35;;;3.30;;
22705;SDS011;11520;51.198;4.468;2023-03-05T16:54:01;8.18;;;3.20;;
22705;SDS011;11520;51.198;4.468;2023-03-05T16:56:27;6.85;;;3.13;;
22705;SDS011;11520;51.198;4.468;2023-03-05T16:58:54;4.63;;;3.10;;
22705;SDS011;11520;51.198;4.468;2023-03-05T17:01:21;6.38;;;3.00;;
22705;SDS011;11520;51.198;4.468;2023-03-05T17:03:49;5.97;;;2.50;;
22705;SDS011;11520;51.198;4.468;2023-03-05T17:06:23;5.65;;;2.95;;